Airfield :







YOU CAN JOIN US ON...

 
LOGIN :

Register | Disclaimer

   EN    FR    IT 

 









Legend :    VFR   Marginal VFR   IFR   Intensive IFR   Very Intensive IFR
Visi :
Ceiling :
>= 8 km
>= 3000ft
5 to 8 km
1000 to 3000 ft
1500m to 5 km
500 to 1000 ft
800 to 1500m
200 to 500 ft
< 800m
< 200 ft
Symbols :   Thunderstorms  Fog  Heavy snow  Heavy precipitations  Wind > 20 kt






- Airport Elevation : 266 ft
- IATA code : MHT


KMHT - Manchester

CURRENT METAR :
  • 180053Z 03011KT 10SM BKN016 OVC030 01/M04 A3024 RMK AO2 SLP262 T00061044

EXPIRED METARs :
  • 172353Z 04008KT 10SM BKN019 BKN029 OVC036 01/M04 A3027 RMK AO2 SLP270 T00111044 10022 20011 56016
  • 172336Z 03007KT 10SM BKN018 OVC030 01/M04 A3028 RMK AO2 T00111044
  • 172253Z 03007KT 10SM FEW025 OVC035 02/M05 A3028 RMK AO2 SLP274 T00171050

TAF KMHT
Valid from the 18 at 00:00 until the 19 at 00:00 UTC


180015Z 1800/1824 04007KT P6SM BKN015
FM181300 36010KT P6SM -FZRA OVC015
FM181600 36010KT 5SM -RA BR OVC015



MET'MAP, your aeronautical weather chart ! - Copyright ORBIFLY December 2007 - Disclaimer

ORBIFLY MET'MAP TEAM :

Programming & Development : Alexandra Zaïnal
Concept & Development : Baudouin d'Aumeries
Co-Development & Prog : Marc-Olivier Méhu
Technical & hardware support : Manuel Goepfert

Contact : metmap@orbifly.com




SOURCES & CREDITS :

   NOAA